Terminal Aerodrome Forecast
Issued by NWS Flagstaff, AZ

Home | Current Version | Previous Version | Text Only | Print | Product List | Glossary On
Versions: 1 2 3 4 5 6 7 8 9 10 11 12 13 14 15 16 17
000
FTUS45 KFGZ 190500
TAFINW
TAF
KINW 190522Z 1906/2006 VRB06KT P6SM BKN080
     FM191900 24010G18KT P6SM SCT090 BKN120
     FM200200 VRB05KT P6SM SCT100 SCT150=

USA.gov is the U.S. government's official web portal to all federal, state and local government web resources and services.